Celebrity Galaxy — 9HJH9 — position and weather

sailwx.info

Track history (hours):
 
Tides and Currents Weather Stations Pressure Air Temp Water Temp Dewpoint Dewpoint Depression Visibility Wind Speed Wind Dir Waves Ship Positions

Celebrity Galaxy

Last reported at 2019-Sep-21 23:30 UTC. Time now 2019-Sep-21 23:48 UTC.
Position N 62°03' E 004°43'.

Length 262 m; draft 8.5 m.

Type: Passenger vessel. MMSI: 249051000.

Date/timePositionNaut miles runAvg speedWind from/ knotsBaromVisibWave heightAir tempDewpointWater temp
2019-Sep-21 23:30N 62°03' E 004°43'918.2
2019-Sep-21 23:00N 61°55' E 004°36'918.4
2019-Sep-21 22:30N 61°46' E 004°32'918.2
2019-Sep-21 22:00N 61°37' E 004°29'918.7
2019-Sep-21 21:30N 61°28' E 004°26'918.7
2019-Sep-21 21:00N 61°18' E 004°25'917.4
2019-Sep-21 20:30N 61°14' E 004°42'917.4
2019-Sep-21 19:59N 61°13' E 004°59'511.1
2019-Sep-21 19:30N 61°09' E 005°07'917.7
2019-Sep-21 19:00N 61°04' E 005°22'1019.8
2019-Sep-21 18:30N 61°07' E 005°41'1019.8
2019-Sep-21 18:00N 61°08' E 006°02'1019.6
2019-Sep-21 17:30N 61°06' E 006°22'917.6
2019-Sep-21 17:00N 61°11' E 006°38'917.7
2019-Sep-21 16:29N 61°07' E 006°55'918.3
2019-Sep-21 16:00N 60°59' E 007°04'612.3
2019-Sep-21 15:30N 60°54' E 007°09'2 3.7
2019-Sep-21 15:00N 60°52' E 007°07'0 0.0
2019-Sep-21 14:30N 60°52' E 007°07'0 0.0
2019-Sep-21 14:01N 60°52' E 007°07'0 0.0
2019-Sep-21 13:30N 60°52' E 007°07'0 0.0
2019-Sep-21 13:00N 60°52' E 007°07'0 0.0
2019-Sep-21 12:30N 60°52' E 007°07'0 0.0
2019-Sep-21 12:00N 60°52' E 007°07'0 0.0
2019-Sep-21 11:30N 60°52' E 007°07'0 0.0
2019-Sep-21 11:00N 60°52' E 007°07'0 0.0
2019-Sep-21 10:30N 60°52' E 007°07'0 0.0
2019-Sep-21 10:00N 60°52' E 007°07'0 0.0
2019-Sep-21 09:30N 60°52' E 007°07'0 0.0
2019-Sep-21 09:00N 60°52' E 007°07'0 0.0
2019-Sep-21 08:30N 60°52' E 007°07'0 0.0
2019-Sep-21 08:00N 60°52' E 007°07'0 0.0
2019-Sep-21 07:30N 60°52' E 007°07'0 0.0
2019-Sep-21 07:00N 60°52' E 007°07'0 0.0
2019-Sep-21 06:30N 60°52' E 007°07'0 0.0
2019-Sep-21 06:00N 60°52' E 007°07'0 0.0
2019-Sep-21 05:30N 60°52' E 007°07'0 0.1
2019-Sep-21 04:59N 60°52' E 007°07'1 2.4
2019-Sep-21 04:30N 60°53' E 007°08'5 9.5
2019-Sep-21 04:00N 60°58' E 007°06'714.1
2019-Sep-21 03:30N 61°04' E 007°01'714.2
2019-Sep-21 03:00N 61°09' E 006°51'714.3
2019-Sep-21 02:30N 61°11' E 006°37'713.4
2019-Sep-21 02:01N 61°06' E 006°27'714.2
2019-Sep-21 01:30N 61°07' E 006°12'714.6
2019-Sep-21 01:00N 61°08' E 005°57'714.3
2019-Sep-21 00:29N 61°07' E 005°42'714.2
2019-Sep-21 00:00N 61°05' E 005°29'713.4
2019-Sep-20 23:30N 61°05' E 005°15'713.4
2019-Sep-20 23:00N 61°05' E 005°02'714.5
2019-Sep-20 22:31N 61°01' E 004°50'713.8
2019-Sep-20 22:00N 60°55' E 004°40'613.2
2019-Sep-20 21:30N 60°50' E 004°32'715.1
2019-Sep-20 21:00N 60°45' E 004°20'917.9
2019-Sep-20 20:30N 60°37' E 004°17'1019.3
2019-Sep-20 20:00N 60°27' E 004°21'1019.5
2019-Sep-20 19:29N 60°17' E 004°25'919.4
2019-Sep-20 19:00N 60°08' E 004°28'1019.5
2019-Sep-20 18:30N 59°58' E 004°32'1019.2
2019-Sep-20 17:59N 59°49' E 004°37'918.9
2019-Sep-20 17:30N 59°41' E 004°46'918.5
2019-Sep-20 17:00N 59°33' E 004°55'918.6
2019-Sep-20 16:30N 59°27' E 005°10'4 7.8
2019-Sep-20 16:00N 59°25' E 005°15'0 0.0
2019-Sep-20 15:28N 59°25' E 005°15'0 0.0
2019-Sep-20 14:58N 59°25' E 005°15'0 0.0
2019-Sep-20 14:29N 59°25' E 005°15'0 0.0
2019-Sep-20 13:59N 59°25' E 005°15'0 0.0
2019-Sep-20 13:28N 59°25' E 005°15'0 0.0
2019-Sep-20 12:58N 59°25' E 005°15'0 0.0
2019-Sep-20 12:28N 59°25' E 005°15'0 0.0
2019-Sep-20 11:58N 59°25' E 005°15'0 0.0
2019-Sep-20 11:28N 59°25' E 005°15'0 0.0
2019-Sep-20 10:58N 59°25' E 005°15'0 0.0
2019-Sep-20 10:28N 59°25' E 005°15'0 0.0
2019-Sep-20 09:58N 59°25' E 005°15'0 0.0
2019-Sep-20 09:28N 59°25' E 005°15'0 0.0
2019-Sep-20 08:58N 59°25' E 005°15'0 0.0
2019-Sep-20 08:28N 59°25' E 005°15'0 0.0
2019-Sep-20 07:58N 59°25' E 005°15'0 0.0
2019-Sep-20 07:30N 59°25' E 005°15'0 0.1
2019-Sep-20 07:00N 59°25' E 005°15'3 6.3
2019-Sep-20 06:30N 59°27' E 005°11'612.4
2019-Sep-20 06:00N 59°21' E 005°06'714.5
2019-Sep-20 05:30N 59°14' E 005°07'713.6
2019-Sep-20 05:00N 59°07' E 005°10'713.0
2019-Sep-20 04:30N 59°05' E 005°22'714.2
2019-Sep-20 04:00N 58°58' E 005°18'713.6
2019-Sep-20 03:30N 58°52' E 005°15'815.4
2019-Sep-20 03:00N 58°44' E 005°12'815.9
2019-Sep-20 02:30N 58°36' E 005°09'816.5
2019-Sep-20 02:00N 58°28' E 005°06'916.9
2019-Sep-20 01:30N 58°20' E 004°60'816.6
2019-Sep-20 00:59N 58°12' E 004°55'816.4
2019-Sep-20 00:30N 58°04' E 004°51'816.8
2019-Sep-20 00:00N 57°56' E 004°46'916.9
2019-Sep-19 23:30N 57°48' E 004°42'917.1
2019-Sep-19 22:59N 57°40' E 004°38'817.4
2019-Sep-19 22:30N 57°32' E 004°33'917.4
2019-Sep-19 21:59N 57°23' E 004°28'1017.5
2019-Sep-19 21:25N 57°13' E 004°23'717.4
2019-Sep-19 21:00N 57°06' E 004°19'917.5
2019-Sep-19 20:30N 56°58' E 004°15'917.5
2019-Sep-19 19:58N 56°49' E 004°11'1017.4
2019-Sep-19 19:25N 56°40' E 004°06'817.4
2019-Sep-19 18:57N 56°32' E 004°02'817.4
2019-Sep-19 18:29N 56°24' E 003°58'1117.3
2019-Sep-19 17:51N 56°14' E 003°53'20817.8
2019-Sep-19 06:10N 52°50' E 002°40'1220.1
2019-Sep-19 05:35N 52°38' E 002°39'120.0
2019-Sep-19 05:30N 52°37' E 002°39'1020.2
2019-Sep-19 05:00N 52°27' E 002°39'1020.2
2019-Sep-19 04:30N 52°17' E 002°39'4418.8
2019-Sep-19 02:11N 51°35' E 002°19'319.4
2019-Sep-19 02:00N 51°32' E 002°15'1019.2
2019-Sep-19 01:30N 51°24' E 002°07'918.7
2019-Sep-19 01:00N 51°18' E 001°56'1019.1
2019-Sep-19 00:30N 51°11' E 001°46'918.5
2019-Sep-19 00:00N 51°04' E 001°36'918.2
2019-Sep-18 23:30N 50°57' E 001°26'917.5
2019-Sep-18 23:00N 50°49' E 001°22'1117.5
2019-Sep-18 22:21N 50°39' E 001°13'1318.6
2019-Sep-18 21:41N 50°32' E 000°56'718.5
2019-Sep-18 21:19N 50°30' E 000°46'2418.2
2019-Sep-18 19:59N 50°23' E 000°09'1717.0
2019-Sep-18 18:58N 50°27' W 000°17'817.6
2019-Sep-18 18:30N 50°31' W 000°28'917.8
2019-Sep-18 17:59N 50°35' W 000°41'817.1
2019-Sep-18 17:30N 50°38' W 000°53'714.8
2019-Sep-18 17:00N 50°43' W 001°01'714.8
2019-Sep-18 16:30N 50°46' W 001°12'4 8.8
2019-Sep-18 16:01N 50°49' W 001°18'5 9.7
2019-Sep-18 15:30N 50°52' W 001°23'2 4.1
2019-Sep-18 14:57N 50°54' W 001°25'0 0.0
2019-Sep-18 14:30N 50°54' W 001°25'0 0.0
2019-Sep-18 14:00N 50°54' W 001°25'0 0.0
2019-Sep-18 13:24N 50°54' W 001°25'0 0.0
2019-Sep-18 12:51N 50°54' W 001°25'0 0.0
2019-Sep-18 12:30N 50°54' W 001°25'0 0.0
2019-Sep-18 11:56N 50°54' W 001°25'0 0.0
2019-Sep-18 11:23N 50°54' W 001°25'0 0.0
2019-Sep-18 10:56N 50°54' W 001°25'0 0.0
2019-Sep-18 10:29N 50°54' W 001°25'0 0.0
2019-Sep-18 09:53N 50°54' W 001°25'0 0.0
2019-Sep-18 09:20N 50°54' W 001°25'0 0.0
2019-Sep-18 08:55N 50°54' W 001°25'0 0.0
2019-Sep-18 08:16N 50°54' W 001°25'0 0.0
2019-Sep-18 07:22N 50°54' W 001°25'0 0.0
2019-Sep-18 06:55N 50°54' W 001°25'0 0.0
2019-Sep-18 06:28N 50°54' W 001°25'0 0.0
2019-Sep-18 06:00N 50°54' W 001°25'0 0.0
2019-Sep-18 05:24N 50°54' W 001°25'0 0.0
2019-Sep-18 04:53N 50°54' W 001°25'1 2.1
2019-Sep-18 04:30N 50°53' W 001°24'4 8.3
2019-Sep-18 04:00N 50°50' W 001°20'4 7.9
2019-Sep-18 03:30N 50°47' W 001°19'714.0
2019-Sep-18 03:01N 50°45' W 001°08'714.3
2019-Sep-18 02:31N 50°42' W 000°58'4 8.8
2019-Sep-18 02:01N 50°38' W 000°58'5 9.3
2019-Sep-18 01:30N 50°33' W 000°57'3 6.2
2019-Sep-18 01:00N 50°32' W 001°02'3 6.8
2019-Sep-18 00:30N 50°31' W 001°07'4 8.9
2019-Sep-18 00:00N 50°30' W 001°14'6 9.1
2019-Sep-17 23:19N 50°28' W 001°23'6 9.0
2019-Sep-17 22:41N 50°26' W 001°32'2 9.0
2019-Sep-17 22:28N 50°25' W 001°35'8 9.0
2019-Sep-17 21:33N 50°23' W 001°47'0 9.0
2019-Sep-17 21:30N 50°23' W 001°48'5 9.2
2019-Sep-17 21:00N 50°22' W 001°55'4 8.9
2019-Sep-17 20:30N 50°21' W 002°01'5 8.7
2019-Sep-17 19:53N 50°19' W 002°10'1210.5
2019-Sep-17 18:43N 50°16' W 002°28'311.9
2019-Sep-17 18:29N 50°15' W 002°32'911.4
2019-Sep-17 17:40N 50°13' W 002°46'211.2
2019-Sep-17 17:30N 50°12' W 002°49'510.9
2019-Sep-17 17:00N 50°11' W 002°57'510.6
2019-Sep-17 16:30N 50°09' W 003°05'510.1
2019-Sep-17 16:00N 50°08' W 003°13'5 9.7
2019-Sep-17 15:30N 50°06' W 003°20'5 9.9
2019-Sep-17 15:01N 50°05' W 003°27'510.0
2019-Sep-17 14:31N 50°03' W 003°35'5 9.9
2019-Sep-17 14:01N 50°02' W 003°42'5 9.8
2019-Sep-17 13:30N 50°01' W 003°50'510.0
2019-Sep-17 13:00N 49°60' W 003°57'510.2
2019-Sep-17 12:28N 49°58' W 004°06'1010.5
2019-Sep-17 11:30N 49°56' W 004°21'1110.6
2019-Sep-17 10:28N 49°54' W 004°38'911.0
2019-Sep-17 09:39N 49°51' W 004°51'311.5
2019-Sep-17 09:25N 49°51' W 004°55'2612.3
2019-Sep-17 07:19N 49°52' W 005°35'4710.3
2019-Sep-17 02:46N 50°30' W 006°16'913.3
2019-Sep-17 02:05N 50°37' W 006°27'113.3
2019-Sep-17 02:00N 50°38' W 006°28'713.1
2019-Sep-17 01:27N 50°43' W 006°36'813.1
2019-Sep-17 00:51N 50°48' W 006°45'713.0
2019-Sep-17 00:20N 50°53' W 006°52'512.9
2019-Sep-16 23:55N 50°57' W 006°58'4012.8
2019-Sep-16 20:48N 51°25' W 007°43'413.0
2019-Sep-16 20:30N 51°28' W 007°48'612.9
2019-Sep-16 20:00N 51°32' W 007°55'612.8
2019-Sep-16 19:30N 51°37' W 008°02'612.9
2019-Sep-16 19:00N 51°41' W 008°09'612.2
2019-Sep-16 18:30N 51°46' W 008°15'5 9.2
2019-Sep-16 18:01N 51°51' W 008°16'1 2.2
2019-Sep-16 17:29N 51°51' W 008°18'0 0.0
2019-Sep-16 17:01N 51°51' W 008°18'0 0.0
2019-Sep-16 16:28N 51°51' W 008°18'0 0.0
2019-Sep-16 15:58N 51°51' W 008°18'0 0.0
2019-Sep-16 15:28N 51°51' W 008°18'0 0.0
2019-Sep-16 14:58N 51°51' W 008°18'0 0.0
2019-Sep-16 14:28N 51°51' W 008°18'0 0.0
2019-Sep-16 13:58N 51°51' W 008°18'0 0.0
2019-Sep-16 13:28N 51°51' W 008°18'0 0.0
2019-Sep-16 12:58N 51°51' W 008°18'0 0.0
2019-Sep-16 12:28N 51°51' W 008°18'0 0.0
2019-Sep-16 11:58N 51°51' W 008°18'0 0.0
2019-Sep-16 11:28N 51°51' W 008°18'0 0.0
2019-Sep-16 10:58N 51°51' W 008°18'0 0.0
2019-Sep-16 10:28N 51°51' W 008°18'0 0.0
2019-Sep-16 09:58N 51°51' W 008°18'0 0.0
2019-Sep-16 09:28N 51°51' W 008°18'0 0.0
2019-Sep-16 08:58N 51°51' W 008°18'0 0.0
2019-Sep-16 08:28N 51°51' W 008°18'0 0.0
2019-Sep-16 08:00N 51°51' W 008°18'1 2.5
2019-Sep-16 07:30N 51°51' W 008°16'611.0
2019-Sep-16 07:00N 51°45' W 008°15'5 9.2
2019-Sep-16 06:31N 51°41' W 008°13'510.6
2019-Sep-16 06:00N 51°40' W 008°05'611.1
2019-Sep-16 05:30N 51°41' W 007°57'611.3
2019-Sep-16 05:00N 51°43' W 007°48'713.4
2019-Sep-16 04:30N 51°46' W 007°38'816.4
2019-Sep-16 04:00N 51°49' W 007°26'816.9
2019-Sep-16 03:30N 51°52' W 007°13'7115.9
2019-Sep-15 23:02N 52°45' W 005°54'116.6
2019-Sep-15 22:59N 52°45' W 005°54'816.5
2019-Sep-15 22:30N 52°53' W 005°53'816.3
2019-Sep-15 22:00N 53°01' W 005°55'815.4
2019-Sep-15 21:30N 53°09' W 005°57'815.9
2019-Sep-15 21:01N 53°16' W 006°01'611.7
2019-Sep-15 20:30N 53°21' W 006°08'3 5.5
2019-Sep-15 20:00N 53°21' W 006°13'0 0.0
2019-Sep-15 19:23N 53°21' W 006°13'0 0.0
2019-Sep-15 18:47N 53°21' W 006°13'0 0.0
2019-Sep-15 18:14N 53°21' W 006°13'0 0.0
2019-Sep-15 17:59N 53°21' W 006°13'0 0.0
2019-Sep-15 17:29N 53°21' W 006°13'0 0.0
2019-Sep-15 16:59N 53°21' W 006°13'0 0.0
2019-Sep-15 16:29N 53°21' W 006°13'0 0.0
2019-Sep-15 16:00N 53°21' W 006°13'0 0.0
2019-Sep-15 15:27N 53°21' W 006°13'0 0.0
2019-Sep-15 14:54N 53°21' W 006°13'0 0.0
2019-Sep-15 14:27N 53°21' W 006°13'0 0.0
2019-Sep-15 14:00N 53°21' W 006°13'0 0.0
2019-Sep-15 13:17N 53°21' W 006°13'0 0.0
2019-Sep-15 12:47N 53°21' W 006°13'0 0.0
2019-Sep-15 12:14N 53°21' W 006°13'0 0.0
2019-Sep-15 11:44N 53°21' W 006°13'0 0.0
2019-Sep-15 11:14N 53°21' W 006°13'0 0.0
2019-Sep-15 10:59N 53°21' W 006°13'0 0.0
2019-Sep-15 10:28N 53°21' W 006°13'0 0.0
2019-Sep-15 09:46N 53°21' W 006°13'0 0.0
2019-Sep-15 09:16N 53°21' W 006°13'0 0.0
2019-Sep-15 09:00N 53°21' W 006°13'1 2.1
2019-Sep-15 08:30N 53°21' W 006°11'4 8.9
2019-Sep-15 08:00N 53°20' W 006°04'510.9
2019-Sep-15 07:30N 53°23' W 005°56'611.4
2019-Sep-15 06:56N 53°28' W 005°49'3811.8
2019-Sep-15 03:42N 54°05' W 005°30'312.4
2019-Sep-15 03:27N 54°08' W 005°28'714.8
2019-Sep-15 02:57N 54°15' W 005°24'715.8
2019-Sep-15 02:30N 54°22' W 005°20'815.7
2019-Sep-15 02:00N 54°30' W 005°20'816.4
2019-Sep-15 01:30N 54°38' W 005°22'816.2
2019-Sep-15 01:00N 54°45' W 005°28'3317.9
2019-Sep-14 23:09N 55°13' W 005°58'319.9
2019-Sep-14 22:59N 55°16' W 006°01'918.5
2019-Sep-14 22:30N 55°22' W 006°13'917.9
2019-Sep-14 22:00N 55°26' W 006°27'1019.7
2019-Sep-14 21:30N 55°34' W 006°37'1019.7
2019-Sep-14 21:00N 55°42' W 006°47'1018.9
2019-Sep-14 20:30N 55°50' W 006°56'9915.0
2019-Sep-14 13:53N 57°29' W 006°54'  
Track history (hours):
 
Tides and Currents Weather Stations Pressure Air Temp Water Temp Dewpoint Dewpoint Depression Visibility Wind Speed Wind Dir Waves Ship Positions

Celebrity Galaxy

Last reported at 2019-Sep-21 23:30 UTC. Time now 2019-Sep-21 23:48 UTC.
Position N 62°03' E 004°43'.

Length 262 m; draft 8.5 m.

Type: Passenger vessel. MMSI: 249051000.

Date/timePositionNaut miles runAvg speedWind from/ knotsBaromVisibWave heightAir tempDewpointWater temp
2019-Sep-21 23:30N 62°03' E 004°43'918.2
2019-Sep-21 23:00N 61°55' E 004°36'918.4
2019-Sep-21 22:30N 61°46' E 004°32'918.2
2019-Sep-21 22:00N 61°37' E 004°29'918.7
2019-Sep-21 21:30N 61°28' E 004°26'918.7
2019-Sep-21 21:00N 61°18' E 004°25'917.4
2019-Sep-21 20:30N 61°14' E 004°42'917.4
2019-Sep-21 19:59N 61°13' E 004°59'511.1
2019-Sep-21 19:30N 61°09' E 005°07'917.7
2019-Sep-21 19:00N 61°04' E 005°22'1019.8
2019-Sep-21 18:30N 61°07' E 005°41'1019.8
2019-Sep-21 18:00N 61°08' E 006°02'1019.6
2019-Sep-21 17:30N 61°06' E 006°22'917.6
2019-Sep-21 17:00N 61°11' E 006°38'917.7
2019-Sep-21 16:29N 61°07' E 006°55'918.3
2019-Sep-21 16:00N 60°59' E 007°04'612.3
2019-Sep-21 15:30N 60°54' E 007°09'2 3.7
2019-Sep-21 15:00N 60°52' E 007°07'0 0.0
2019-Sep-21 14:30N 60°52' E 007°07'0 0.0
2019-Sep-21 14:01N 60°52' E 007°07'0 0.0
2019-Sep-21 13:30N 60°52' E 007°07'0 0.0
2019-Sep-21 13:00N 60°52' E 007°07'0 0.0
2019-Sep-21 12:30N 60°52' E 007°07'0 0.0
2019-Sep-21 12:00N 60°52' E 007°07'0 0.0
2019-Sep-21 11:30N 60°52' E 007°07'0 0.0
2019-Sep-21 11:00N 60°52' E 007°07'0 0.0
2019-Sep-21 10:30N 60°52' E 007°07'0 0.0
2019-Sep-21 10:00N 60°52' E 007°07'0 0.0
2019-Sep-21 09:30N 60°52' E 007°07'0 0.0
2019-Sep-21 09:00N 60°52' E 007°07'0 0.0
2019-Sep-21 08:30N 60°52' E 007°07'0 0.0
2019-Sep-21 08:00N 60°52' E 007°07'0 0.0
2019-Sep-21 07:30N 60°52' E 007°07'0 0.0
2019-Sep-21 07:00N 60°52' E 007°07'0 0.0
2019-Sep-21 06:30N 60°52' E 007°07'0 0.0
2019-Sep-21 06:00N 60°52' E 007°07'0 0.0
2019-Sep-21 05:30N 60°52' E 007°07'0 0.1
2019-Sep-21 04:59N 60°52' E 007°07'1 2.4
2019-Sep-21 04:30N 60°53' E 007°08'5 9.5
2019-Sep-21 04:00N 60°58' E 007°06'714.1
2019-Sep-21 03:30N 61°04' E 007°01'714.2
2019-Sep-21 03:00N 61°09' E 006°51'714.3
2019-Sep-21 02:30N 61°11' E 006°37'713.4
2019-Sep-21 02:01N 61°06' E 006°27'714.2
2019-Sep-21 01:30N 61°07' E 006°12'714.6
2019-Sep-21 01:00N 61°08' E 005°57'714.3
2019-Sep-21 00:29N 61°07' E 005°42'714.2
2019-Sep-21 00:00N 61°05' E 005°29'713.4
2019-Sep-20 23:30N 61°05' E 005°15'713.4
2019-Sep-20 23:00N 61°05' E 005°02'714.5
2019-Sep-20 22:31N 61°01' E 004°50'713.8
2019-Sep-20 22:00N 60°55' E 004°40'613.2
2019-Sep-20 21:30N 60°50' E 004°32'715.1
2019-Sep-20 21:00N 60°45' E 004°20'917.9
2019-Sep-20 20:30N 60°37' E 004°17'1019.3
2019-Sep-20 20:00N 60°27' E 004°21'1019.5
2019-Sep-20 19:29N 60°17' E 004°25'919.4
2019-Sep-20 19:00N 60°08' E 004°28'1019.5
2019-Sep-20 18:30N 59°58' E 004°32'1019.2
2019-Sep-20 17:59N 59°49' E 004°37'918.9
2019-Sep-20 17:30N 59°41' E 004°46'918.5
2019-Sep-20 17:00N 59°33' E 004°55'918.6
2019-Sep-20 16:30N 59°27' E 005°10'4 7.8
2019-Sep-20 16:00N 59°25' E 005°15'0 0.0
2019-Sep-20 15:28N 59°25' E 005°15'0 0.0
2019-Sep-20 14:58N 59°25' E 005°15'0 0.0
2019-Sep-20 14:29N 59°25' E 005°15'0 0.0
2019-Sep-20 13:59N 59°25' E 005°15'0 0.0
2019-Sep-20 13:28N 59°25' E 005°15'0 0.0
2019-Sep-20 12:58N 59°25' E 005°15'0 0.0
2019-Sep-20 12:28N 59°25' E 005°15'0 0.0
2019-Sep-20 11:58N 59°25' E 005°15'0 0.0
2019-Sep-20 11:28N 59°25' E 005°15'0 0.0
2019-Sep-20 10:58N 59°25' E 005°15'0 0.0
2019-Sep-20 10:28N 59°25' E 005°15'0 0.0
2019-Sep-20 09:58N 59°25' E 005°15'0 0.0
2019-Sep-20 09:28N 59°25' E 005°15'0 0.0
2019-Sep-20 08:58N 59°25' E 005°15'0 0.0
2019-Sep-20 08:28N 59°25' E 005°15'0 0.0
2019-Sep-20 07:58N 59°25' E 005°15'0 0.0
2019-Sep-20 07:30N 59°25' E 005°15'0 0.1
2019-Sep-20 07:00N 59°25' E 005°15'3 6.3
2019-Sep-20 06:30N 59°27' E 005°11'612.4
2019-Sep-20 06:00N 59°21' E 005°06'714.5
2019-Sep-20 05:30N 59°14' E 005°07'713.6
2019-Sep-20 05:00N 59°07' E 005°10'713.0
2019-Sep-20 04:30N 59°05' E 005°22'714.2
2019-Sep-20 04:00N 58°58' E 005°18'713.6
2019-Sep-20 03:30N 58°52' E 005°15'815.4
2019-Sep-20 03:00N 58°44' E 005°12'815.9
2019-Sep-20 02:30N 58°36' E 005°09'816.5
2019-Sep-20 02:00N 58°28' E 005°06'916.9
2019-Sep-20 01:30N 58°20' E 004°60'816.6
2019-Sep-20 00:59N 58°12' E 004°55'816.4
2019-Sep-20 00:30N 58°04' E 004°51'816.8
2019-Sep-20 00:00N 57°56' E 004°46'916.9
2019-Sep-19 23:30N 57°48' E 004°42'917.1
2019-Sep-19 22:59N 57°40' E 004°38'817.4
2019-Sep-19 22:30N 57°32' E 004°33'917.4
2019-Sep-19 21:59N 57°23' E 004°28'1017.5
2019-Sep-19 21:25N 57°13' E 004°23'717.4
2019-Sep-19 21:00N 57°06' E 004°19'917.5
2019-Sep-19 20:30N 56°58' E 004°15'917.5
2019-Sep-19 19:58N 56°49' E 004°11'1017.4
2019-Sep-19 19:25N 56°40' E 004°06'817.4
2019-Sep-19 18:57N 56°32' E 004°02'817.4
2019-Sep-19 18:29N 56°24' E 003°58'1117.3
2019-Sep-19 17:51N 56°14' E 003°53'20817.8
2019-Sep-19 06:10N 52°50' E 002°40'1220.1
2019-Sep-19 05:35N 52°38' E 002°39'120.0
2019-Sep-19 05:30N 52°37' E 002°39'1020.2
2019-Sep-19 05:00N 52°27' E 002°39'1020.2
2019-Sep-19 04:30N 52°17' E 002°39'4418.8
2019-Sep-19 02:11N 51°35' E 002°19'319.4
2019-Sep-19 02:00N 51°32' E 002°15'1019.2
2019-Sep-19 01:30N 51°24' E 002°07'918.7
2019-Sep-19 01:00N 51°18' E 001°56'1019.1
2019-Sep-19 00:30N 51°11' E 001°46'918.5
2019-Sep-19 00:00N 51°04' E 001°36'918.2
2019-Sep-18 23:30N 50°57' E 001°26'917.5
2019-Sep-18 23:00N 50°49' E 001°22'1117.5
2019-Sep-18 22:21N 50°39' E 001°13'1318.6
2019-Sep-18 21:41N 50°32' E 000°56'718.5
2019-Sep-18 21:19N 50°30' E 000°46'2418.2
2019-Sep-18 19:59N 50°23' E 000°09'1717.0
2019-Sep-18 18:58N 50°27' W 000°17'817.6
2019-Sep-18 18:30N 50°31' W 000°28'917.8
2019-Sep-18 17:59N 50°35' W 000°41'817.1
2019-Sep-18 17:30N 50°38' W 000°53'714.8
2019-Sep-18 17:00N 50°43' W 001°01'714.8
2019-Sep-18 16:30N 50°46' W 001°12'4 8.8
2019-Sep-18 16:01N 50°49' W 001°18'5 9.7
2019-Sep-18 15:30N 50°52' W 001°23'2 4.1
2019-Sep-18 14:57N 50°54' W 001°25'0 0.0
2019-Sep-18 14:30N 50°54' W 001°25'0 0.0
2019-Sep-18 14:00N 50°54' W 001°25'0 0.0
2019-Sep-18 13:24N 50°54' W 001°25'0 0.0
2019-Sep-18 12:51N 50°54' W 001°25'0 0.0
2019-Sep-18 12:30N 50°54' W 001°25'0 0.0
2019-Sep-18 11:56N 50°54' W 001°25'0 0.0
2019-Sep-18 11:23N 50°54' W 001°25'0 0.0
2019-Sep-18 10:56N 50°54' W 001°25'0 0.0
2019-Sep-18 10:29N 50°54' W 001°25'0 0.0
2019-Sep-18 09:53N 50°54' W 001°25'0 0.0
2019-Sep-18 09:20N 50°54' W 001°25'0 0.0
2019-Sep-18 08:55N 50°54' W 001°25'0 0.0
2019-Sep-18 08:16N 50°54' W 001°25'0 0.0
2019-Sep-18 07:22N 50°54' W 001°25'0 0.0
2019-Sep-18 06:55N 50°54' W 001°25'0 0.0
2019-Sep-18 06:28N 50°54' W 001°25'0 0.0
2019-Sep-18 06:00N 50°54' W 001°25'0 0.0
2019-Sep-18 05:24N 50°54' W 001°25'0 0.0
2019-Sep-18 04:53N 50°54' W 001°25'1 2.1
2019-Sep-18 04:30N 50°53' W 001°24'4 8.3
2019-Sep-18 04:00N 50°50' W 001°20'4 7.9
2019-Sep-18 03:30N 50°47' W 001°19'714.0
2019-Sep-18 03:01N 50°45' W 001°08'714.3
2019-Sep-18 02:31N 50°42' W 000°58'4 8.8
2019-Sep-18 02:01N 50°38' W 000°58'5 9.3
2019-Sep-18 01:30N 50°33' W 000°57'3 6.2
2019-Sep-18 01:00N 50°32' W 001°02'3 6.8
2019-Sep-18 00:30N 50°31' W 001°07'4 8.9
2019-Sep-18 00:00N 50°30' W 001°14'6 9.1
2019-Sep-17 23:19N 50°28' W 001°23'6 9.0
2019-Sep-17 22:41N 50°26' W 001°32'2 9.0
2019-Sep-17 22:28N 50°25' W 001°35'8 9.0
2019-Sep-17 21:33N 50°23' W 001°47'0 9.0
2019-Sep-17 21:30N 50°23' W 001°48'5 9.2
2019-Sep-17 21:00N 50°22' W 001°55'4 8.9
2019-Sep-17 20:30N 50°21' W 002°01'5 8.7
2019-Sep-17 19:53N 50°19' W 002°10'1210.5
2019-Sep-17 18:43N 50°16' W 002°28'311.9
2019-Sep-17 18:29N 50°15' W 002°32'911.4
2019-Sep-17 17:40N 50°13' W 002°46'211.2
2019-Sep-17 17:30N 50°12' W 002°49'510.9
2019-Sep-17 17:00N 50°11' W 002°57'510.6
2019-Sep-17 16:30N 50°09' W 003°05'510.1
2019-Sep-17 16:00N 50°08' W 003°13'5 9.7
2019-Sep-17 15:30N 50°06' W 003°20'5 9.9
2019-Sep-17 15:01N 50°05' W 003°27'510.0
2019-Sep-17 14:31N 50°03' W 003°35'5 9.9
2019-Sep-17 14:01N 50°02' W 003°42'5 9.8
2019-Sep-17 13:30N 50°01' W 003°50'510.0
2019-Sep-17 13:00N 49°60' W 003°57'510.2
2019-Sep-17 12:28N 49°58' W 004°06'1010.5
2019-Sep-17 11:30N 49°56' W 004°21'1110.6
2019-Sep-17 10:28N 49°54' W 004°38'911.0
2019-Sep-17 09:39N 49°51' W 004°51'311.5
2019-Sep-17 09:25N 49°51' W 004°55'2612.3
2019-Sep-17 07:19N 49°52' W 005°35'4710.3
2019-Sep-17 02:46N 50°30' W 006°16'913.3
2019-Sep-17 02:05N 50°37' W 006°27'113.3
2019-Sep-17 02:00N 50°38' W 006°28'713.1
2019-Sep-17 01:27N 50°43' W 006°36'813.1
2019-Sep-17 00:51N 50°48' W 006°45'713.0
2019-Sep-17 00:20N 50°53' W 006°52'512.9
2019-Sep-16 23:55N 50°57' W 006°58'4012.8
2019-Sep-16 20:48N 51°25' W 007°43'413.0
2019-Sep-16 20:30N 51°28' W 007°48'612.9
2019-Sep-16 20:00N 51°32' W 007°55'612.8
2019-Sep-16 19:30N 51°37' W 008°02'612.9
2019-Sep-16 19:00N 51°41' W 008°09'612.2
2019-Sep-16 18:30N 51°46' W 008°15'5 9.2
2019-Sep-16 18:01N 51°51' W 008°16'1 2.2
2019-Sep-16 17:29N 51°51' W 008°18'0 0.0
2019-Sep-16 17:01N 51°51' W 008°18'0 0.0
2019-Sep-16 16:28N 51°51' W 008°18'0 0.0
2019-Sep-16 15:58N 51°51' W 008°18'0 0.0
2019-Sep-16 15:28N 51°51' W 008°18'0 0.0
2019-Sep-16 14:58N 51°51' W 008°18'0 0.0
2019-Sep-16 14:28N 51°51' W 008°18'0 0.0
2019-Sep-16 13:58N 51°51' W 008°18'0 0.0
2019-Sep-16 13:28N 51°51' W 008°18'0 0.0
2019-Sep-16 12:58N 51°51' W 008°18'0 0.0
2019-Sep-16 12:28N 51°51' W 008°18'0 0.0
2019-Sep-16 11:58N 51°51' W 008°18'0 0.0
2019-Sep-16 11:28N 51°51' W 008°18'0 0.0
2019-Sep-16 10:58N 51°51' W 008°18'0 0.0
2019-Sep-16 10:28N 51°51' W 008°18'0 0.0
2019-Sep-16 09:58N 51°51' W 008°18'0 0.0
2019-Sep-16 09:28N 51°51' W 008°18'0 0.0
2019-Sep-16 08:58N 51°51' W 008°18'0 0.0
2019-Sep-16 08:28N 51°51' W 008°18'0 0.0
2019-Sep-16 08:00N 51°51' W 008°18'1 2.5
2019-Sep-16 07:30N 51°51' W 008°16'611.0
2019-Sep-16 07:00N 51°45' W 008°15'5 9.2
2019-Sep-16 06:31N 51°41' W 008°13'510.6
2019-Sep-16 06:00N 51°40' W 008°05'611.1
2019-Sep-16 05:30N 51°41' W 007°57'611.3
2019-Sep-16 05:00N 51°43' W 007°48'713.4
2019-Sep-16 04:30N 51°46' W 007°38'816.4
2019-Sep-16 04:00N 51°49' W 007°26'816.9
2019-Sep-16 03:30N 51°52' W 007°13'7115.9
2019-Sep-15 23:02N 52°45' W 005°54'116.6
2019-Sep-15 22:59N 52°45' W 005°54'816.5
2019-Sep-15 22:30N 52°53' W 005°53'816.3
2019-Sep-15 22:00N 53°01' W 005°55'815.4
2019-Sep-15 21:30N 53°09' W 005°57'815.9
2019-Sep-15 21:01N 53°16' W 006°01'611.7
2019-Sep-15 20:30N 53°21' W 006°08'3 5.5
2019-Sep-15 20:00N 53°21' W 006°13'0 0.0
2019-Sep-15 19:23N 53°21' W 006°13'0 0.0
2019-Sep-15 18:47N 53°21' W 006°13'0 0.0
2019-Sep-15 18:14N 53°21' W 006°13'0 0.0
2019-Sep-15 17:59N 53°21' W 006°13'0 0.0
2019-Sep-15 17:29N 53°21' W 006°13'0 0.0
2019-Sep-15 16:59N 53°21' W 006°13'0 0.0
2019-Sep-15 16:29N 53°21' W 006°13'0 0.0
2019-Sep-15 16:00N 53°21' W 006°13'0 0.0
2019-Sep-15 15:27N 53°21' W 006°13'0 0.0
2019-Sep-15 14:54N 53°21' W 006°13'0 0.0
2019-Sep-15 14:27N 53°21' W 006°13'0 0.0
2019-Sep-15 14:00N 53°21' W 006°13'0 0.0
2019-Sep-15 13:17N 53°21' W 006°13'0 0.0
2019-Sep-15 12:47N 53°21' W 006°13'0 0.0
2019-Sep-15 12:14N 53°21' W 006°13'0 0.0
2019-Sep-15 11:44N 53°21' W 006°13'0 0.0
2019-Sep-15 11:14N 53°21' W 006°13'0 0.0
2019-Sep-15 10:59N 53°21' W 006°13'0 0.0
2019-Sep-15 10:28N 53°21' W 006°13'0 0.0
2019-Sep-15 09:46N 53°21' W 006°13'0 0.0
2019-Sep-15 09:16N 53°21' W 006°13'0 0.0
2019-Sep-15 09:00N 53°21' W 006°13'1 2.1
2019-Sep-15 08:30N 53°21' W 006°11'4 8.9
2019-Sep-15 08:00N 53°20' W 006°04'510.9
2019-Sep-15 07:30N 53°23' W 005°56'611.4
2019-Sep-15 06:56N 53°28' W 005°49'3811.8
2019-Sep-15 03:42N 54°05' W 005°30'312.4
2019-Sep-15 03:27N 54°08' W 005°28'714.8
2019-Sep-15 02:57N 54°15' W 005°24'715.8
2019-Sep-15 02:30N 54°22' W 005°20'815.7
2019-Sep-15 02:00N 54°30' W 005°20'816.4
2019-Sep-15 01:30N 54°38' W 005°22'816.2
2019-Sep-15 01:00N 54°45' W 005°28'3317.9
2019-Sep-14 23:09N 55°13' W 005°58'319.9
2019-Sep-14 22:59N 55°16' W 006°01'918.5
2019-Sep-14 22:30N 55°22' W 006°13'917.9
2019-Sep-14 22:00N 55°26' W 006°27'1019.7
2019-Sep-14 21:30N 55°34' W 006°37'1019.7
2019-Sep-14 21:00N 55°42' W 006°47'1018.9
2019-Sep-14 20:30N 55°50' W 006°56'9915.0
2019-Sep-14 13:53N 57°29' W 006°54'  

Dump ship's entire track history